createdAt,value
2022-11-27T00:01:31.553Z,96.60
2022-11-27T00:03:58.532Z,96.60
2022-11-27T00:06:29.090Z,96.60
2022-11-27T00:08:58.014Z,96.60
2022-11-27T00:11:27.455Z,96.60
2022-11-27T00:13:54.424Z,96.60
2022-11-27T00:16:23.153Z,96.60
2022-11-27T00:18:50.748Z,96.70
2022-11-27T00:21:24.521Z,96.70
2022-11-27T00:23:53.286Z,96.70
2022-11-27T00:26:21.239Z,96.70
2022-11-27T00:28:48.231Z,96.70
2022-11-27T00:31:19.535Z,96.70
2022-11-27T00:33:46.799Z,96.70
2022-11-27T00:36:14.960Z,96.80
2022-11-27T00:38:42.367Z,96.80
2022-11-27T00:41:29.716Z,96.70
2022-11-27T00:43:57.223Z,96.80
2022-11-27T00:46:29.379Z,96.70
2022-11-27T00:49:01.826Z,96.70
2022-11-27T00:51:30.199Z,96.70
2022-11-27T00:53:57.425Z,96.80
2022-11-27T00:56:29.495Z,96.70
2022-11-27T00:58:57.055Z,96.80
2022-11-27T01:01:37.222Z,96.90
2022-11-27T01:04:06.378Z,96.90
2022-11-27T01:06:33.402Z,96.90
2022-11-27T01:09:00.987Z,96.90
2022-11-27T01:11:32.381Z,96.90
2022-11-27T01:14:07.527Z,97.30
2022-11-27T01:16:35.257Z,96.90
2022-11-27T01:19:02.611Z,97.00
2022-11-27T01:21:33.734Z,96.90
2022-11-27T01:24:02.209Z,96.90
2022-11-27T01:26:29.342Z,96.90
2022-11-27T01:28:57.954Z,96.90
2022-11-27T01:31:29.400Z,96.80
2022-11-27T01:34:01.268Z,96.80
2022-11-27T01:36:28.838Z,96.80
2022-11-27T01:38:55.974Z,96.90
2022-11-27T01:41:29.461Z,96.90
2022-11-27T01:43:59.029Z,96.90
2022-11-27T01:46:39.857Z,96.90
2022-11-27T01:49:09.730Z,96.90
2022-11-27T01:52:10.874Z,96.90
2022-11-27T01:54:53.789Z,96.80
2022-11-27T01:58:09.275Z,96.80
2022-11-27T02:00:37.410Z,96.70
2022-11-27T02:03:04.565Z,96.70
2022-11-27T02:05:33.411Z,96.70
2022-11-27T02:08:10.875Z,96.70
2022-11-27T02:10:59.560Z,96.70
2022-11-27T02:13:39.300Z,96.70
2022-11-27T02:16:43.994Z,96.70
2022-11-27T02:19:29.716Z,96.60
2022-11-27T02:22:47.454Z,96.60
2022-11-27T02:25:31.958Z,96.60
2022-11-27T02:28:42.518Z,96.60
2022-11-27T02:31:20.577Z,96.50
2022-11-27T02:33:54.114Z,96.50
2022-11-27T02:36:29.145Z,96.50
2022-11-27T02:39:09.720Z,96.50
2022-11-27T02:41:52.786Z,96.40
2022-11-27T02:44:21.582Z,96.40
2022-11-27T02:46:49.914Z,96.40
2022-11-27T02:49:19.323Z,96.40
2022-11-27T02:51:59.401Z,96.40
2022-11-27T02:54:30.111Z,96.40
2022-11-27T02:57:00.660Z,96.50
2022-11-27T02:59:30.559Z,96.50
2022-11-27T03:02:10.737Z,96.50
2022-11-27T03:04:46.032Z,96.50
2022-11-27T03:07:19.468Z,96.60
2022-11-27T03:09:53.062Z,96.40
2022-11-27T03:12:20.414Z,96.40
2022-11-27T03:14:48.864Z,96.40
2022-11-27T03:17:51.679Z,96.40
2022-11-27T03:20:26.316Z,96.40
2022-11-27T03:22:54.734Z,96.50
2022-11-27T03:25:23.108Z,96.60
2022-11-27T03:27:56.834Z,96.50
2022-11-27T03:30:23.833Z,96.60
2022-11-27T03:32:50.862Z,96.50
2022-11-27T03:35:22.181Z,96.40
2022-11-27T03:37:49.931Z,96.50
2022-11-27T03:40:18.179Z,96.60
2022-11-27T03:43:10.607Z,96.60
2022-11-27T03:46:09.385Z,96.60
2022-11-27T03:48:52.973Z,96.60
2022-11-27T03:51:40.831Z,96.70
2022-11-27T03:54:34.411Z,96.70
2022-11-27T03:57:13.506Z,96.70
2022-11-27T03:59:44.771Z,96.70
2022-11-27T04:02:14.469Z,96.70
2022-11-27T04:04:41.849Z,96.70
2022-11-27T04:07:16.195Z,96.70
2022-11-27T04:09:43.114Z,96.70
2022-11-27T04:12:10.056Z,96.80
2022-11-27T04:14:36.922Z,96.80
2022-11-27T04:17:03.839Z,96.80
2022-11-27T04:19:30.694Z,96.70
2022-11-27T04:21:57.644Z,96.70
2022-11-27T04:24:24.515Z,96.70
2022-11-27T04:26:51.387Z,96.60
2022-11-27T04:29:18.263Z,96.70
2022-11-27T04:31:45.664Z,96.70
2022-11-27T04:34:12.555Z,96.80
2022-11-27T04:36:39.813Z,96.70
2022-11-27T04:39:06.956Z,96.80
2022-11-27T04:41:33.968Z,96.70
2022-11-27T04:44:00.824Z,96.70
2022-11-27T04:46:27.773Z,96.60
2022-11-27T04:48:54.669Z,96.60
2022-11-27T04:51:21.559Z,96.70
2022-11-27T04:53:48.432Z,96.70
2022-11-27T04:56:15.459Z,96.80
2022-11-27T04:58:42.346Z,96.80
2022-11-27T05:01:09.927Z,96.70
2022-11-27T05:03:37.283Z,96.70
2022-11-27T05:06:04.330Z,96.70
2022-11-27T05:08:32.859Z,96.70
2022-11-27T05:11:13.046Z,96.70
2022-11-27T05:13:40.415Z,96.80
2022-11-27T05:16:08.601Z,96.80
2022-11-27T05:18:36.284Z,96.80
2022-11-27T05:21:08.206Z,96.90
2022-11-27T05:23:35.727Z,97.00
2022-11-27T05:26:03.451Z,97.00
2022-11-27T05:28:30.512Z,97.10
2022-11-27T05:30:57.574Z,97.10
2022-11-27T05:33:24.518Z,97.10
2022-11-27T05:35:51.398Z,97.10
2022-11-27T05:38:18.319Z,97.10
2022-11-27T05:40:45.188Z,97.10
2022-11-27T05:43:12.083Z,97.10
2022-11-27T05:45:38.966Z,97.10
2022-11-27T05:48:05.926Z,97.00
2022-11-27T05:50:33.280Z,97.00
2022-11-27T05:53:00.193Z,97.00
2022-11-27T05:55:27.098Z,97.00
2022-11-27T05:57:53.982Z,97.00
2022-11-27T06:00:21.188Z,97.10
2022-11-27T06:02:48.204Z,97.10
2022-11-27T06:05:15.158Z,97.10
2022-11-27T06:07:42.097Z,97.10
2022-11-27T06:10:09.397Z,97.00
2022-11-27T06:12:36.325Z,97.00
2022-11-27T06:15:04.051Z,97.00
2022-11-27T06:17:31.085Z,97.10
2022-11-27T06:19:57.965Z,97.50
2022-11-27T06:22:24.843Z,97.90
2022-11-27T06:24:51.706Z,99.50
2022-11-27T06:27:18.593Z,99.30
2022-11-27T06:29:45.459Z,99.90
2022-11-27T06:32:12.420Z,99.90
2022-11-27T06:34:39.697Z,99.30
2022-11-27T06:37:11.811Z,98.90
2022-11-27T06:39:39.980Z,98.70
2022-11-27T06:42:06.886Z,98.50
2022-11-27T06:44:33.768Z,97.60
2022-11-27T06:47:00.670Z,96.70
2022-11-27T06:49:27.551Z,96.60
2022-11-27T06:51:54.426Z,96.30
2022-11-27T06:54:21.331Z,96.30
2022-11-27T06:56:50.476Z,96.20
2022-11-27T06:59:18.049Z,96.30
2022-11-27T07:01:45.083Z,96.30
2022-11-27T07:04:14.407Z,96.40
2022-11-27T07:06:42.238Z,96.40
2022-11-27T07:09:10.108Z,96.50
2022-11-27T07:11:38.635Z,96.50
2022-11-27T07:14:06.543Z,96.40
2022-11-27T07:16:36.280Z,96.40
2022-11-27T07:19:07.777Z,96.40
2022-11-27T07:21:38.017Z,96.50
2022-11-27T07:24:05.153Z,96.60
2022-11-27T07:26:32.153Z,96.70
2022-11-27T07:28:59.313Z,96.60
2022-11-27T07:31:30.098Z,96.50
2022-11-27T07:33:57.540Z,96.60
2022-11-27T07:36:28.906Z,96.60
2022-11-27T07:38:56.161Z,96.50
2022-11-27T07:41:23.092Z,96.50
2022-11-27T07:43:49.962Z,96.50
2022-11-27T07:46:23.169Z,96.60
2022-11-27T07:48:51.409Z,96.70
2022-11-27T07:51:20.867Z,96.80
2022-11-27T07:53:48.672Z,96.80
2022-11-27T07:56:16.837Z,96.90
2022-11-27T07:58:43.869Z,96.80
2022-11-27T08:01:14.835Z,96.80
2022-11-27T08:03:44.240Z,96.80
2022-11-27T08:06:22.954Z,96.90
2022-11-27T08:08:50.500Z,97.00
2022-11-27T08:11:30.324Z,97.10
2022-11-27T08:14:04.371Z,97.20
2022-11-27T08:16:33.847Z,97.30
2022-11-27T08:19:01.046Z,97.40
2022-11-27T08:21:28.976Z,97.60
2022-11-27T08:23:57.692Z,97.70
2022-11-27T08:26:27.589Z,97.90
2022-11-27T08:28:56.258Z,98.00
2022-11-27T08:31:23.675Z,98.10
2022-11-27T08:33:50.632Z,98.00
2022-11-27T08:36:18.249Z,98.00
2022-11-27T08:38:46.529Z,98.10
2022-11-27T08:41:13.493Z,98.40
2022-11-27T08:43:40.392Z,98.10
2022-11-27T08:46:07.999Z,98.20
2022-11-27T08:48:35.391Z,98.20
2022-11-27T08:51:14.222Z,98.10
2022-11-27T08:53:41.648Z,98.10
2022-11-27T08:56:16.539Z,98.10
2022-11-27T08:58:43.902Z,97.90
2022-11-27T09:01:17.771Z,98.00
2022-11-27T09:03:44.787Z,98.00
2022-11-27T09:06:15.320Z,98.00
2022-11-27T09:08:42.952Z,98.00
2022-11-27T09:11:11.435Z,97.70
2022-11-27T09:13:40.155Z,97.70
2022-11-27T09:16:12.161Z,97.40
2022-11-27T09:18:39.907Z,97.50
2022-11-27T09:21:10.145Z,97.30
2022-11-27T09:23:37.734Z,97.30
2022-11-27T09:26:08.903Z,97.20
2022-11-27T09:28:36.985Z,97.30
2022-11-27T09:31:05.969Z,97.40
2022-11-27T09:33:35.458Z,97.30
2022-11-27T09:36:24.048Z,97.30
2022-11-27T09:38:51.514Z,97.10
2022-11-27T09:41:47.141Z,97.10
2022-11-27T09:44:48.174Z,96.90
2022-11-27T09:47:21.979Z,97.00
2022-11-27T09:49:55.610Z,97.10
2022-11-27T09:52:48.128Z,97.10
2022-11-27T09:55:32.660Z,97.00
2022-11-27T09:58:06.140Z,96.80
2022-11-27T10:00:33.495Z,96.90
2022-11-27T10:03:00.679Z,96.80
2022-11-27T10:05:39.390Z,96.90
2022-11-27T10:08:26.473Z,96.80
2022-11-27T10:11:06.965Z,96.80
2022-11-27T10:13:48.322Z,96.70
2022-11-27T10:16:49.055Z,96.60
2022-11-27T10:19:36.367Z,96.60
2022-11-27T10:22:24.828Z,96.60
2022-11-27T10:25:11.610Z,96.50
2022-11-27T10:27:56.586Z,96.50
2022-11-27T10:30:23.447Z,96.40
2022-11-27T10:32:55.958Z,96.20
2022-11-27T10:35:31.594Z,96.10
2022-11-27T10:38:09.114Z,96.20
2022-11-27T10:40:45.675Z,96.20
2022-11-27T10:43:25.231Z,96.20
2022-11-27T10:46:08.677Z,95.90
2022-11-27T10:48:35.682Z,95.80
2022-11-27T10:51:02.555Z,95.40
2022-11-27T10:53:33.447Z,95.20
2022-11-27T10:56:12.037Z,95.40
2022-11-27T10:59:01.629Z,95.20
2022-11-27T11:01:45.197Z,95.50
2022-11-27T11:04:36.565Z,95.30
2022-11-27T11:07:02.785Z,95.30
2022-11-27T11:09:34.477Z,95.20
2022-11-27T11:12:21.028Z,95.20
2022-11-27T11:14:52.418Z,95.00
2022-11-27T11:17:26.973Z,95.00
2022-11-27T11:19:54.151Z,95.20
2022-11-27T11:22:21.583Z,94.90
2022-11-27T11:24:51.841Z,94.40
2022-11-27T11:27:30.683Z,94.40
2022-11-27T11:30:01.062Z,94.00
2022-11-27T11:32:33.139Z,94.20
2022-11-27T11:35:08.383Z,94.30
2022-11-27T11:37:39.779Z,94.30
2022-11-27T11:40:25.319Z,94.10
2022-11-27T11:42:59.106Z,94.00
2022-11-27T11:45:31.347Z,94.10
2022-11-27T11:48:26.430Z,94.00
2022-11-27T11:50:55.935Z,93.90
2022-11-27T11:53:45.392Z,93.90
2022-11-27T11:56:38.760Z,93.90
2022-11-27T11:59:26.309Z,93.60
2022-11-27T12:02:27.223Z,93.90
2022-11-27T12:05:13.796Z,93.90
2022-11-27T12:08:35.820Z,93.70
2022-11-27T12:11:33.979Z,93.50
2022-11-27T12:14:21.098Z,93.60
2022-11-27T12:17:16.381Z,93.50
2022-11-27T12:20:14.217Z,93.30
2022-11-27T12:23:28.166Z,92.90
2022-11-27T12:26:09.838Z,93.00
2022-11-27T12:29:07.519Z,93.10
2022-11-27T12:32:01.265Z,93.10
2022-11-27T12:35:21.745Z,93.10
2022-11-27T12:38:32.197Z,93.10
2022-11-27T12:41:35.931Z,92.80
2022-11-27T12:44:02.908Z,92.90
2022-11-27T12:47:00.786Z,92.70
2022-11-27T12:49:41.461Z,92.50
2022-11-27T12:52:18.886Z,92.50
2022-11-27T12:55:14.425Z,92.50
2022-11-27T12:57:49.943Z,92.70
2022-11-27T13:00:29.391Z,92.60
2022-11-27T13:03:25.100Z,92.30
2022-11-27T13:05:59.380Z,92.30
2022-11-27T13:08:55.172Z,92.00
2022-11-27T13:11:32.865Z,92.20
2022-11-27T13:14:19.156Z,92.20
2022-11-27T13:16:54.673Z,92.10
2022-11-27T13:19:32.744Z,92.10
2022-11-27T13:22:03.710Z,92.10
2022-11-27T13:24:30.906Z,92.00
2022-11-27T13:27:19.053Z,91.80
2022-11-27T13:30:08.216Z,91.90
2022-11-27T13:32:49.111Z,91.80
2022-11-27T13:35:43.299Z,91.70
2022-11-27T13:38:19.422Z,91.40
2022-11-27T13:40:52.794Z,91.50
2022-11-27T13:43:39.667Z,91.40
2022-11-27T13:46:14.828Z,91.60
2022-11-27T13:48:47.993Z,91.80
2022-11-27T13:51:31.752Z,92.10
2022-11-27T13:54:12.621Z,92.40
2022-11-27T13:56:40.198Z,92.50
2022-11-27T13:59:22.680Z,92.60
2022-11-27T14:02:05.882Z,92.70
2022-11-27T14:04:34.415Z,92.70
2022-11-27T14:07:07.143Z,92.70
2022-11-27T14:09:48.513Z,92.70
2022-11-27T14:12:24.444Z,92.70
2022-11-27T14:15:17.681Z,92.80
2022-11-27T14:17:47.846Z,92.90
2022-11-27T14:20:17.761Z,92.90
2022-11-27T14:25:38.385Z,93.00
2022-11-27T14:28:22.247Z,93.10
2022-11-27T14:30:56.863Z,93.10
2022-11-27T14:33:59.608Z,93.10
2022-11-27T14:36:31.726Z,93.20
2022-11-27T14:38:59.354Z,93.30
2022-11-27T14:41:28.335Z,93.30
2022-11-27T14:44:02.118Z,93.30
2022-11-27T14:46:31.221Z,93.40
2022-11-27T14:48:58.117Z,93.40
2022-11-27T14:51:32.604Z,93.40
2022-11-27T14:54:21.473Z,93.40
2022-11-27T14:56:49.087Z,93.40
2022-11-27T14:59:19.734Z,93.40
2022-11-27T15:02:11.140Z,93.60
2022-11-27T15:04:43.443Z,93.70
2022-11-27T15:07:22.081Z,93.80
2022-11-27T15:09:56.275Z,94.00
2022-11-27T15:12:27.898Z,94.10
2022-11-27T15:15:13.994Z,94.20
2022-11-27T15:17:44.587Z,94.30
2022-11-27T15:20:18.748Z,94.40
2022-11-27T15:22:57.770Z,94.40
2022-11-27T15:25:40.132Z,94.40
2022-11-27T15:28:38.123Z,94.40
2022-11-27T15:31:33.553Z,94.40
2022-11-27T15:34:18.634Z,94.40
2022-11-27T15:36:49.132Z,94.40
2022-11-27T15:39:45.459Z,94.50
2022-11-27T15:42:12.397Z,94.80
2022-11-27T15:44:39.635Z,94.50
2022-11-27T15:47:07.324Z,94.60
2022-11-27T15:49:34.286Z,94.60
2022-11-27T15:52:01.256Z,94.70
2022-11-27T15:54:28.143Z,94.70
2022-11-27T15:56:55.009Z,94.80
2022-11-27T15:59:21.905Z,94.70
2022-11-27T16:01:49.700Z,94.70
2022-11-27T16:04:17.248Z,94.60
2022-11-27T16:06:44.168Z,94.60
2022-11-27T16:09:11.043Z,94.60
2022-11-27T16:11:38.135Z,94.50
2022-11-27T16:14:05.283Z,94.50
2022-11-27T16:16:32.392Z,94.50
2022-11-27T16:19:01.098Z,94.50
2022-11-27T16:21:29.831Z,94.40
2022-11-27T16:24:08.806Z,94.40
2022-11-27T16:26:38.005Z,94.30
2022-11-27T16:29:09.395Z,94.30
2022-11-27T16:31:36.891Z,94.30
2022-11-27T16:34:05.832Z,94.20
2022-11-27T16:36:34.190Z,94.20
2022-11-27T16:39:02.364Z,94.20
2022-11-27T16:41:29.275Z,94.00
2022-11-27T16:43:57.732Z,94.10
2022-11-27T16:46:30.609Z,94.00
2022-11-27T16:49:00.735Z,94.10
2022-11-27T16:51:31.658Z,94.00
2022-11-27T16:54:04.565Z,93.90
2022-11-27T16:56:33.402Z,93.80
2022-11-27T16:59:07.371Z,93.80
2022-11-27T17:01:36.080Z,93.70
2022-11-27T17:04:07.076Z,93.60
2022-11-27T17:06:34.667Z,93.60
2022-11-27T17:09:04.407Z,93.40
2022-11-27T17:11:33.969Z,93.60
2022-11-27T17:14:06.433Z,93.60
2022-11-27T17:16:35.384Z,93.60
2022-11-27T17:19:03.718Z,93.60
2022-11-27T17:21:34.980Z,93.60
2022-11-27T17:24:15.489Z,93.70
2022-11-27T17:26:47.322Z,93.70
2022-11-27T17:29:21.683Z,93.80
2022-11-27T17:31:50.756Z,93.80
2022-11-27T17:34:18.180Z,93.70
2022-11-27T17:36:46.230Z,93.70
2022-11-27T17:39:15.156Z,93.80
2022-11-27T17:41:44.748Z,93.70
2022-11-27T17:44:12.820Z,93.70
2022-11-27T17:46:40.047Z,93.70
2022-11-27T17:49:08.128Z,93.80
2022-11-27T17:51:36.397Z,93.80
2022-11-27T17:54:04.226Z,93.80
2022-11-27T17:56:33.344Z,93.70
2022-11-27T17:59:00.753Z,93.80
2022-11-27T18:01:30.402Z,93.80
2022-11-27T18:04:03.895Z,93.80
2022-11-27T18:06:32.134Z,93.80
2022-11-27T18:08:59.670Z,93.80
2022-11-27T18:11:29.872Z,93.80
2022-11-27T18:13:59.625Z,93.90
2022-11-27T18:16:31.338Z,93.90
2022-11-27T18:18:59.653Z,94.00
2022-11-27T18:21:28.531Z,94.00
2022-11-27T18:27:07.375Z,94.10
2022-11-27T18:29:29.931Z,94.10
2022-11-27T18:31:56.844Z,94.20
2022-11-27T18:34:23.850Z,94.20
2022-11-27T18:36:50.739Z,94.20
2022-11-27T18:39:17.691Z,94.20
2022-11-27T18:41:44.564Z,94.20
2022-11-27T18:44:11.823Z,94.20
2022-11-27T18:46:38.789Z,94.20
2022-11-27T18:49:06.033Z,94.20
2022-11-27T18:51:33.302Z,94.30
2022-11-27T18:54:00.483Z,94.40
2022-11-27T18:56:30.669Z,94.50
2022-11-27T18:59:04.022Z,94.50
2022-11-27T19:01:40.919Z,94.60
2022-11-27T19:04:08.905Z,94.60
2022-11-27T19:06:36.754Z,94.60
2022-11-27T19:09:04.934Z,94.70
2022-11-27T19:11:33.878Z,94.70
2022-11-27T19:14:01.102Z,94.70
2022-11-27T19:16:32.765Z,95.10
2022-11-27T19:19:02.097Z,94.80
2022-11-27T19:21:31.817Z,94.80
2022-11-27T19:24:01.113Z,94.80
2022-11-27T19:26:34.948Z,94.80
2022-11-27T19:29:08.375Z,94.80
2022-11-27T19:31:39.669Z,94.80
2022-11-27T19:34:07.824Z,94.80
2022-11-27T19:36:36.008Z,94.80
2022-11-27T19:39:14.642Z,94.90
2022-11-27T19:41:43.337Z,95.00
2022-11-27T19:44:12.542Z,95.00
2022-11-27T19:46:40.898Z,95.00
2022-11-27T19:49:13.219Z,95.00
2022-11-27T19:51:40.727Z,95.10
2022-11-27T19:54:12.614Z,95.00
2022-11-27T19:56:42.150Z,95.10
2022-11-27T19:59:10.572Z,95.10
2022-11-27T20:01:40.309Z,95.10
2022-11-27T20:04:10.540Z,95.20
2022-11-27T20:06:39.231Z,95.30
2022-11-27T20:09:06.918Z,95.30
2022-11-27T20:11:35.658Z,95.40
2022-11-27T20:14:05.431Z,95.40
2022-11-27T20:16:35.765Z,95.50
2022-11-27T20:19:05.534Z,95.50
2022-11-27T20:21:34.229Z,95.50
2022-11-27T20:24:03.401Z,95.50
2022-11-27T20:26:30.614Z,95.50
2022-11-27T20:28:58.986Z,95.50
2022-11-27T20:31:32.845Z,95.50
2022-11-27T20:34:04.066Z,95.50
2022-11-27T20:36:34.487Z,95.50
2022-11-27T20:39:02.342Z,95.50
2022-11-27T20:41:29.736Z,95.50
2022-11-27T20:44:00.333Z,95.40
2022-11-27T20:46:29.010Z,95.40
2022-11-27T20:48:56.259Z,95.30
2022-11-27T20:51:31.275Z,95.30
2022-11-27T20:54:00.559Z,95.30
2022-11-27T20:56:30.494Z,95.20
2022-11-27T20:58:58.706Z,95.20
2022-11-27T21:01:30.999Z,95.20
2022-11-27T21:04:00.900Z,95.20
2022-11-27T21:06:31.727Z,95.20
2022-11-27T21:09:04.394Z,95.20
2022-11-27T21:11:32.897Z,95.30
2022-11-27T21:14:07.844Z,95.20
2022-11-27T21:16:38.832Z,95.20
2022-11-27T21:19:10.891Z,95.10
2022-11-27T21:21:38.561Z,95.20
2022-11-27T21:24:06.546Z,95.10
2022-11-27T21:26:33.901Z,95.20
2022-11-27T21:29:01.622Z,95.30
2022-11-27T21:31:34.562Z,95.30
2022-11-27T21:34:07.321Z,95.40
2022-11-27T21:36:36.750Z,95.40
2022-11-27T21:39:08.167Z,95.50
2022-11-27T21:41:35.812Z,96.00
2022-11-27T21:44:04.217Z,95.60
2022-11-27T21:46:32.353Z,95.70
2022-11-27T21:49:00.740Z,95.70
2022-11-27T21:51:29.577Z,95.70
2022-11-27T21:53:58.846Z,95.70
2022-11-27T21:56:28.146Z,95.60
2022-11-27T21:58:55.246Z,95.60
2022-11-27T22:01:25.546Z,95.60
2022-11-27T22:03:57.351Z,95.50
2022-11-27T22:06:28.069Z,95.50
2022-11-27T22:08:58.397Z,95.50
2022-11-27T22:11:28.014Z,95.50
2022-11-27T22:13:59.686Z,95.40
2022-11-27T22:16:31.053Z,95.40
2022-11-27T22:18:59.690Z,95.40
2022-11-27T22:21:29.578Z,95.40
2022-11-27T22:23:58.387Z,95.50
2022-11-27T22:26:25.835Z,95.60
2022-11-27T22:28:53.085Z,95.70
2022-11-27T22:31:25.431Z,95.70
2022-11-27T22:33:53.010Z,95.80
2022-11-27T22:36:30.390Z,95.80
2022-11-27T22:39:00.400Z,95.80
2022-11-27T22:41:29.679Z,95.80
2022-11-27T22:44:00.191Z,95.80
2022-11-27T22:46:32.655Z,95.80
2022-11-27T22:49:03.017Z,95.80
2022-11-27T22:51:32.347Z,95.90
2022-11-27T22:54:00.626Z,95.90
2022-11-27T22:56:28.015Z,95.90
2022-11-27T22:59:17.570Z,95.90
2022-11-27T23:01:42.354Z,95.90
2022-11-27T23:04:09.271Z,95.80
2022-11-27T23:06:36.973Z,95.80
2022-11-27T23:09:04.030Z,95.80
2022-11-27T23:11:31.507Z,95.80
2022-11-27T23:13:58.845Z,95.90
2022-11-27T23:16:25.847Z,95.90
2022-11-27T23:18:53.098Z,95.90
2022-11-27T23:21:22.711Z,95.90
2022-11-27T23:23:50.566Z,95.90
2022-11-27T23:26:21.590Z,95.90
2022-11-27T23:28:52.066Z,96.00
2022-11-27T23:31:30.695Z,96.00
2022-11-27T23:34:01.791Z,96.00
2022-11-27T23:36:30.466Z,96.00
2022-11-27T23:39:00.933Z,96.00
2022-11-27T23:41:28.272Z,95.90
2022-11-27T23:43:56.126Z,95.90
2022-11-27T23:46:26.665Z,95.90
2022-11-27T23:48:55.929Z,96.00
2022-11-27T23:51:26.697Z,96.00
2022-11-27T23:53:54.080Z,96.00
2022-11-27T23:56:28.082Z,96.00
2022-11-27T23:58:56.237Z,95.90
